Time;durP1;ratioP1;P1;durP2;ratioP2;P2;SDS_P1;SDS_P2;PMS_P1;PMS_P2;Temp;Humidity;BMP_temperature;BMP_pressure;BME280_temperature;BME280_humidity;BME280_pressure;Samples;Min_cycle;Max_cycle;Signal;HPM_P1;HPM_P2
2022/04/27 00:00:08;;;;;;;;;;;;;;;17.92;44.88;99465.38;4487893;31;32711;-70
2022/04/27 00:02:38;;;;;;;;;;;;;;;17.92;44.35;99464.53;4483358;31;33583;-70
2022/04/27 00:05:09;;;;;;;;;;;;;;;17.83;44.67;99454.69;4484799;31;33802;-71
2022/04/27 00:07:39;;;;;;;;;;;;;;;17.76;45.21;99459.06;4490572;31;32323;-71
2022/04/27 00:10:12;;;;;;;;;;;;;;;17.98;44.68;99468.37;4487270;31;32541;-71
2022/04/27 00:12:48;;;;;;;;;;;;;;;17.65;45.63;99471.88;4469156;31;33968;-71
2022/04/27 00:15:16;;;;;;;;;;;;;;;17.96;44.24;99475.84;4482302;31;33871;-71
2022/04/27 00:17:44;;;;;;;;;;;;;;;17.84;43.99;99468.06;4487490;31;34739;-71
2022/04/27 00:20:13;;;;;;;;;;;;;;;17.65;44.75;99477.28;4486881;31;34085;-72
2022/04/27 00:22:41;;;;;;;;;;;;;;;17.95;43.46;99479.59;4482255;31;34265;-71
2022/04/27 00:25:10;;;;;;;;;;;;;;;17.99;43.09;99481.78;4487168;31;35353;-71
2022/04/27 00:27:38;;;;;;;;;;;;;;;18.00;43.23;99471.78;4481085;32;32508;-71
2022/04/27 00:30:06;;;;;;;;;;;;;;;18.13;43.12;99472.97;4484674;31;34008;-72
2022/04/27 00:32:36;;;;;;;;;;;;;;;18.35;43.05;99467.87;4481845;31;34189;-72
2022/04/27 00:35:05;;;;;;;;;;;;;;;18.37;42.69;99471.28;4485653;31;33812;-71
2022/04/27 00:37:34;;;;;;;;;;;;;;;18.24;43.30;99470.94;4481368;31;33717;-72
2022/04/27 00:40:03;;;;;;;;;;;;;;;18.57;42.42;99471.72;4477366;31;33062;-71
2022/04/27 00:42:31;;;;;;;;;;;;;;;18.54;42.06;99474.78;4489900;31;34020;-74
2022/04/27 00:45:02;;;;;;;;;;;;;;;18.60;41.84;99476.81;4493560;31;35252;-71
2022/04/27 00:47:31;;;;;;;;;;;;;;;18.67;42.07;99485.94;4484482;31;33517;-70
2022/04/27 00:50:02;;;;;;;;;;;;;;;18.25;43.86;99488.88;4495986;31;35657;-71
2022/04/27 00:52:33;;;;;;;;;;;;;;;18.41;42.66;99493.44;4486578;31;34346;-71
2022/04/27 00:55:01;;;;;;;;;;;;;;;18.63;42.03;99495.44;4485259;31;34612;-71
2022/04/27 00:57:33;;;;;;;;;;;;;;;18.34;43.21;99488.72;4478815;31;34698;-71
2022/04/27 01:00:05;;;;;;;;;;;;;;;18.11;43.75;99487.72;4490159;31;33991;-69
2022/04/27 01:02:33;;;;;;;;;;;;;;;18.12;44.06;99490.25;4491746;31;34782;-69
2022/04/27 01:05:07;;;;;;;;;;;;;;;17.84;45.26;99489.72;4475977;31;33109;-70
2022/04/27 01:07:39;;;;;;;;;;;;;;;17.98;45.23;99492.75;4483092;31;32505;-69
2022/04/27 01:10:09;;;;;;;;;;;;;;;18.12;44.71;99490.25;4466953;32;34045;-70
2022/04/27 01:12:37;;;;;;;;;;;;;;;17.91;45.34;99490.75;4490824;31;34364;-70
2022/04/27 01:15:06;;;;;;;;;;;;;;;18.03;45.04;99493.13;4498415;31;34432;-70
2022/04/27 01:17:35;;;;;;;;;;;;;;;17.88;45.53;99488.38;4483966;31;32405;-70
2022/04/27 01:20:04;;;;;;;;;;;;;;;17.79;45.93;99493.94;4483618;31;32946;-70
2022/04/27 01:22:33;;;;;;;;;;;;;;;17.74;46.24;99489.00;4492646;31;34049;-69
2022/04/27 01:25:01;;;;;;;;;;;;;;;18.07;45.42;99497.16;4497756;31;35012;-69
2022/04/27 01:27:29;;;;;;;;;;;;;;;17.99;46.24;99499.88;4483361;31;33553;-69
2022/04/27 01:29:58;;;;;;;;;;;;;;;18.10;46.13;99500.38;4484476;31;34475;-68
2022/04/27 01:32:26;;;;;;;;;;;;;;;17.84;47.55;99500.53;4484965;31;34188;-69
2022/04/27 01:34:55;;;;;;;;;;;;;;;17.86;47.82;99500.38;4483359;32;35276;-69
2022/04/27 01:40:11;;;;;;;;;;;;;;;17.97;47.91;99510.88;4484075;31;34235;-68
2022/04/27 01:42:39;;;;;;;;;;;;;;;17.37;49.51;99521.91;4491379;31;34101;-69
2022/04/27 01:45:13;;;;;;;;;;;;;;;17.59;49.04;99528.53;4483316;32;34251;-70
2022/04/27 01:47:43;;;;;;;;;;;;;;;17.43;49.97;99534.75;4489430;31;34453;-69
2022/04/27 01:50:12;;;;;;;;;;;;;;;17.36;50.13;99542.66;4486742;31;34291;-70
2022/04/27 01:55:31;;;;;;;;;;;;;;;17.65;49.49;99541.41;4489528;31;33216;-68
2022/04/27 01:58:00;;;;;;;;;;;;;;;17.55;49.70;99543.41;4484505;31;32394;-69
2022/04/27 02:00:29;;;;;;;;;;;;;;;17.50;49.41;99537.66;4485849;31;35118;-69
2022/04/27 02:02:59;;;;;;;;;;;;;;;17.08;52.05;99535.78;4496912;31;34125;-70
2022/04/27 02:05:28;;;;;;;;;;;;;;;17.59;50.24;99536.66;4489757;31;35198;-71
2022/04/27 02:07:57;;;;;;;;;;;;;;;17.48;51.57;99531.56;4492288;31;33531;-73
2022/04/27 02:10:26;;;;;;;;;;;;;;;17.21;52.40;99525.38;4489141;31;34221;-69
2022/04/27 02:12:55;;;;;;;;;;;;;;;17.31;52.17;99519.84;4483252;31;33210;-71
2022/04/27 02:15:24;;;;;;;;;;;;;;;17.58;51.45;99524.16;4491197;31;34433;-71
2022/04/27 02:18:01;;;;;;;;;;;;;;;17.48;51.85;99515.31;4475937;32;33561;-70
2022/04/27 02:20:31;;;;;;;;;;;;;;;17.74;51.42;99513.34;4486176;31;33808;-70
2022/04/27 02:22:59;;;;;;;;;;;;;;;17.61;52.17;99511.13;4489289;31;34328;-69
2022/04/27 02:25:28;;;;;;;;;;;;;;;17.75;51.74;99512.31;4491192;31;34622;-69
2022/04/27 02:27:58;;;;;;;;;;;;;;;17.86;51.37;99503.94;4483237;31;33755;-70
2022/04/27 02:30:26;;;;;;;;;;;;;;;17.56;52.62;99509.91;4481883;31;35159;-70
2022/04/27 02:32:55;;;;;;;;;;;;;;;17.75;52.15;99500.66;4491027;31;33609;-70
2022/04/27 02:35:23;;;;;;;;;;;;;;;17.82;52.00;99499.88;4486288;31;34676;-70
2022/04/27 02:37:51;;;;;;;;;;;;;;;17.84;52.07;99491.56;4493856;31;32486;-70
2022/04/27 02:40:20;;;;;;;;;;;;;;;17.69;52.07;99500.34;4487706;31;34877;-70
2022/04/27 02:42:49;;;;;;;;;;;;;;;17.55;52.14;99500.97;4482225;31;34162;-70
2022/04/27 02:45:19;;;;;;;;;;;;;;;17.68;51.98;99503.19;4482098;31;33599;-71
2022/04/27 02:47:47;;;;;;;;;;;;;;;17.55;52.49;99505.53;4490336;31;32604;-71
2022/04/27 02:53:04;;;;;;;;;;;;;;;17.31;53.69;99493.62;4489694;31;33237;-70
2022/04/27 02:55:33;;;;;;;;;;;;;;;17.36;53.22;99485.00;4490799;31;33127;-71
2022/04/27 02:58:03;;;;;;;;;;;;;;;17.66;52.33;99494.41;4488428;31;32461;-72
2022/04/27 03:00:34;;;;;;;;;;;;;;;16.72;54.03;99489.94;4483530;31;35134;-70
2022/04/27 03:03:03;;;;;;;;;;;;;;;17.31;52.32;99488.22;4493242;31;33133;-70
2022/04/27 03:05:33;;;;;;;;;;;;;;;17.24;52.83;99487.19;4490573;31;33976;-71
2022/04/27 03:08:02;;;;;;;;;;;;;;;17.19;53.34;99486.81;4471824;32;32537;-69
2022/04/27 03:10:31;;;;;;;;;;;;;;;17.39;52.99;99490.94;4492388;31;34039;-71
2022/04/27 03:13:00;;;;;;;;;;;;;;;17.52;52.59;99495.03;4492597;31;33215;-71
2022/04/27 03:15:31;;;;;;;;;;;;;;;17.39;52.48;99504.47;4482150;31;34224;-69
2022/04/27 03:18:17;;;;;;;;;;;;;;;17.35;52.57;99505.81;4494311;31;33430;-71
2022/04/27 03:20:47;;;;;;;;;;;;;;;17.33;52.63;99502.41;4481973;32;33207;-70
2022/04/27 03:23:17;;;;;;;;;;;;;;;17.33;52.75;99499.72;4489559;31;34472;-72
2022/04/27 03:25:46;;;;;;;;;;;;;;;17.34;52.98;99503.28;4470705;31;33243;-72
2022/04/27 03:28:16;;;;;;;;;;;;;;;17.17;53.14;99500.53;4485638;31;32693;-71
2022/04/27 03:30:44;;;;;;;;;;;;;;;17.33;52.58;99505.13;4486892;31;33791;-71
2022/04/27 03:33:13;;;;;;;;;;;;;;;17.34;52.88;99506.00;4489627;31;32595;-71
2022/04/27 03:35:41;;;;;;;;;;;;;;;17.49;52.28;99511.59;4482849;31;34067;-70
2022/04/27 03:38:10;;;;;;;;;;;;;;;17.46;52.86;99513.66;4488298;31;33511;-69
2022/04/27 03:40:40;;;;;;;;;;;;;;;17.49;53.02;99508.91;4479897;31;34854;-69
2022/04/27 03:43:09;;;;;;;;;;;;;;;17.62;52.39;99514.69;4480870;32;33100;-69
2022/04/27 03:45:39;;;;;;;;;;;;;;;17.61;52.15;99519.25;4480580;31;34176;-70
2022/04/27 03:48:08;;;;;;;;;;;;;;;17.44;52.88;99520.22;4493022;31;32353;-70
2022/04/27 03:50:38;;;;;;;;;;;;;;;17.54;52.69;99522.78;4482106;32;34233;-70
2022/04/27 03:53:07;;;;;;;;;;;;;;;17.63;52.52;99525.34;4481541;32;33923;-69
2022/04/27 03:55:36;;;;;;;;;;;;;;;17.70;52.43;99533.66;4486770;31;34501;-70
2022/04/27 03:58:05;;;;;;;;;;;;;;;17.71;52.25;99529.91;4487058;31;33566;-73
2022/04/27 04:00:33;;;;;;;;;;;;;;;17.56;52.66;99534.28;4474529;31;32638;-70
2022/04/27 04:03:04;;;;;;;;;;;;;;;17.23;53.44;99523.34;4484521;31;33060;-71
2022/04/27 04:05:33;;;;;;;;;;;;;;;17.52;52.75;99524.81;4470172;31;32989;-70
2022/04/27 04:08:03;;;;;;;;;;;;;;;17.32;52.92;99535.06;4489161;31;36244;-71
2022/04/27 04:10:34;;;;;;;;;;;;;;;17.41;52.56;99531.38;4481607;31;34250;-69
2022/04/27 04:13:03;;;;;;;;;;;;;;;17.35;52.34;99543.69;4487796;31;32685;-71
2022/04/27 04:15:33;;;;;;;;;;;;;;;17.25;52.50;99544.84;4482739;31;33376;-70
2022/04/27 04:18:05;;;;;;;;;;;;;;;17.36;52.38;99547.22;4485634;31;33504;-71
2022/04/27 04:20:35;;;;;;;;;;;;;;;17.26;52.98;99546.53;4466798;31;34077;-70
2022/04/27 04:23:04;;;;;;;;;;;;;;;17.00;53.51;99553.66;4483922;31;32908;-70
2022/04/27 04:28:32;;;;;;;;;;;;;;;17.17;53.09;99557.31;4484870;31;33710;-72
2022/04/27 04:31:03;;;;;;;;;;;;;;;17.18;53.28;99559.00;4494326;31;34961;-72
2022/04/27 04:33:33;;;;;;;;;;;;;;;17.38;53.07;99565.00;4494666;31;34013;-71
2022/04/27 04:36:03;;;;;;;;;;;;;;;17.31;53.34;99568.53;4484580;31;35257;-73
2022/04/27 04:38:32;;;;;;;;;;;;;;;17.14;53.60;99575.69;4492291;31;33029;-73
2022/04/27 04:41:01;;;;;;;;;;;;;;;17.14;53.26;99568.47;4488550;31;32618;-73
2022/04/27 04:43:32;;;;;;;;;;;;;;;17.10;53.67;99574.31;4493995;31;33386;-74
2022/04/27 04:46:01;;;;;;;;;;;;;;;16.94;54.40;99575.91;4488659;31;33266;-73
2022/04/27 04:48:31;;;;;;;;;;;;;;;16.85;54.95;99578.72;4498821;31;32315;-74
2022/04/27 04:51:01;;;;;;;;;;;;;;;17.22;54.14;99571.19;4494133;31;33975;-71
2022/04/27 04:53:31;;;;;;;;;;;;;;;17.46;53.18;99578.56;4493488;31;33319;-73
2022/04/27 04:56:12;;;;;;;;;;;;;;;17.65;52.40;99580.13;4482100;31;34387;-75
2022/04/27 04:58:43;;;;;;;;;;;;;;;17.31;53.87;99572.09;4485506;31;32721;-72
2022/04/27 05:01:12;;;;;;;;;;;;;;;17.57;52.83;99569.31;4488228;31;35431;-73
2022/04/27 05:03:43;;;;;;;;;;;;;;;17.76;52.34;99579.00;4493814;31;35299;-73
2022/04/27 05:06:12;;;;;;;;;;;;;;;17.82;52.45;99578.38;4470359;31;34512;-73
2022/04/27 05:08:41;;;;;;;;;;;;;;;17.83;51.83;99584.63;4496820;31;33673;-71
2022/04/27 05:11:11;;;;;;;;;;;;;;;17.77;52.22;99588.84;4485825;31;33779;-71
2022/04/27 05:13:40;;;;;;;;;;;;;;;17.74;52.60;99591.00;4493104;31;34471;-73
2022/04/27 05:16:09;;;;;;;;;;;;;;;17.77;52.15;99594.25;4490619;31;34402;-73
2022/04/27 05:18:40;;;;;;;;;;;;;;;17.73;52.33;99602.84;4490409;31;33405;-71
2022/04/27 05:21:11;;;;;;;;;;;;;;;17.70;53.18;99594.03;4486853;31;33063;-73
2022/04/27 05:23:39;;;;;;;;;;;;;;;17.77;53.67;99601.53;4491852;31;34449;-72
2022/04/27 05:26:11;;;;;;;;;;;;;;;18.20;52.59;99603.16;4483843;31;33469;-72
2022/04/27 05:34:24;;;;;;;;;;;;;;;18.54;50.82;99603.00;4487768;31;32848;-70
2022/04/27 05:36:52;;;;;;;;;;;;;;;18.65;50.76;99609.97;4486096;31;33350;-72
2022/04/27 05:39:23;;;;;;;;;;;;;;;18.89;50.44;99613.72;4488333;31;33264;-72
2022/04/27 05:41:53;;;;;;;;;;;;;;;18.75;49.66;99607.97;4486295;31;33291;-71
2022/04/27 05:44:22;;;;;;;;;;;;;;;18.70;49.64;99613.00;4496755;31;33174;-73
2022/04/27 05:46:52;;;;;;;;;;;;;;;18.66;50.49;99608.94;4494004;31;33403;-73
2022/04/27 05:49:21;;;;;;;;;;;;;;;18.75;50.63;99618.81;4482960;31;33756;-71
2022/04/27 05:51:51;;;;;;;;;;;;;;;18.74;49.27;99618.97;4482596;31;34146;-69
2022/04/27 05:54:19;;;;;;;;;;;;;;;18.80;48.55;99623.72;4487274;31;32084;-70
2022/04/27 05:56:48;;;;;;;;;;;;;;;18.67;49.01;99624.19;4484340;31;33330;-68
2022/04/27 05:59:17;;;;;;;;;;;;;;;18.49;48.20;99637.03;4480539;31;34028;-68
2022/04/27 06:01:45;;;;;;;;;;;;;;;17.74;49.08;99624.34;4491663;31;34135;-69
2022/04/27 06:04:20;;;;;;;;;;;;;;;17.92;48.69;99627.81;4465075;32;32883;-69
2022/04/27 06:06:49;;;;;;;;;;;;;;;17.89;48.20;99624.59;4489562;31;33394;-71
2022/04/27 06:09:17;;;;;;;;;;;;;;;17.89;48.99;99625.44;4482022;31;34591;-70
2022/04/27 06:11:46;;;;;;;;;;;;;;;18.14;49.44;99637.19;4496423;31;33207;-69
2022/04/27 06:14:16;;;;;;;;;;;;;;;17.99;48.61;99636.13;4483549;31;33336;-68
2022/04/27 06:16:46;;;;;;;;;;;;;;;18.48;47.84;99641.63;4485604;31;34607;-68
2022/04/27 06:19:15;;;;;;;;;;;;;;;18.29;47.51;99645.50;4483112;31;32345;-69
2022/04/27 06:21:43;;;;;;;;;;;;;;;18.37;47.07;99647.38;4498596;31;35328;-68
2022/04/27 06:24:13;;;;;;;;;;;;;;;18.65;47.80;99649.75;4493005;31;35196;-69
2022/04/27 06:26:41;;;;;;;;;;;;;;;18.66;46.75;99651.47;4497820;31;34071;-71
2022/04/27 06:29:10;;;;;;;;;;;;;;;18.55;46.02;99652.63;4479492;31;31841;-73
2022/04/27 06:31:40;;;;;;;;;;;;;;;18.60;46.59;99656.53;4492119;31;34475;-73
2022/04/27 06:34:09;;;;;;;;;;;;;;;19.00;47.19;99651.31;4489854;31;35167;-73
2022/04/27 06:36:39;;;;;;;;;;;;;;;19.31;46.68;99667.72;4485197;31;34314;-71
2022/04/27 06:39:14;;;;;;;;;;;;;;;19.31;46.56;99665.84;4480434;31;32339;-72
2022/04/27 06:41:42;;;;;;;;;;;;;;;19.52;45.09;99659.88;4496521;31;34898;-70
2022/04/27 06:44:13;;;;;;;;;;;;;;;18.95;45.72;99665.41;4492132;31;34082;-68
2022/04/27 06:46:46;;;;;;;;;;;;;;;18.97;46.63;99662.50;4481772;31;34535;-70
2022/04/27 06:49:29;;;;;;;;;;;;;;;19.08;47.50;99665.72;4486006;31;33286;-69
2022/04/27 06:52:12;;;;;;;;;;;;;;;18.87;49.02;99656.41;4481376;31;34083;-69
2022/04/27 06:54:45;;;;;;;;;;;;;;;18.79;49.68;99668.13;4473154;31;31584;-70
2022/04/27 06:57:17;;;;;;;;;;;;;;;18.41;50.32;99669.56;4493178;31;33574;-69
2022/04/27 06:59:46;;;;;;;;;;;;;;;18.89;49.47;99671.50;4488523;31;33712;-67
2022/04/27 07:02:15;;;;;;;;;;;;;;;18.52;49.65;99678.25;4483961;31;34415;-69
2022/04/27 07:04:50;;;;;;;;;;;;;;;18.27;49.92;99679.22;4487618;31;34978;-69
2022/04/27 07:07:20;;;;;;;;;;;;;;;18.09;51.31;99679.31;4482408;31;34186;-68
2022/04/27 07:09:56;;;;;;;;;;;;;;;18.12;51.07;99679.81;4485566;31;32762;-69
2022/04/27 07:12:31;;;;;;;;;;;;;;;17.76;52.59;99681.87;4476853;31;33207;-70
2022/04/27 07:15:08;;;;;;;;;;;;;;;17.88;52.35;99686.03;4499438;31;33210;-70
2022/04/27 07:17:41;;;;;;;;;;;;;;;17.91;51.98;99688.41;4473069;32;33475;-69
2022/04/27 07:20:20;;;;;;;;;;;;;;;18.06;51.66;99685.06;4499461;31;33101;-68
2022/04/27 07:22:58;;;;;;;;;;;;;;;18.36;50.99;99686.31;4498364;31;33743;-70
2022/04/27 07:25:29;;;;;;;;;;;;;;;18.39;50.92;99689.56;4487072;31;33705;-69
2022/04/27 07:28:07;;;;;;;;;;;;;;;18.73;49.98;99688.59;4485024;31;34207;-69
2022/04/27 07:30:45;;;;;;;;;;;;;;;18.50;50.26;99690.25;4485086;31;33222;-68
2022/04/27 07:33:22;;;;;;;;;;;;;;;18.45;50.67;99696.16;4487742;31;35711;-70
2022/04/27 07:35:51;;;;;;;;;;;;;;;18.63;50.27;99698.75;4478519;31;33477;-70
2022/04/27 07:38:19;;;;;;;;;;;;;;;18.50;51.04;99704.66;4482478;31;34214;-69
2022/04/27 07:40:48;;;;;;;;;;;;;;;18.24;52.17;99707.47;4480382;31;34693;-68
2022/04/27 07:43:18;;;;;;;;;;;;;;;18.42;51.25;99703.78;4483367;31;34164;-69
2022/04/27 07:45:47;;;;;;;;;;;;;;;18.78;49.35;99704.34;4487464;31;33127;-69
2022/04/27 07:48:15;;;;;;;;;;;;;;;18.90;49.04;99704.88;4480382;31;33233;-71
2022/04/27 07:50:43;;;;;;;;;;;;;;;18.12;50.87;99700.66;4465889;32;32437;-70
2022/04/27 07:53:12;;;;;;;;;;;;;;;17.98;50.84;99706.69;4489545;31;32941;-70
2022/04/27 07:55:40;;;;;;;;;;;;;;;18.46;49.39;99715.97;4478731;31;34454;-69
2022/04/27 07:58:08;;;;;;;;;;;;;;;18.40;49.79;99714.78;4487866;31;34554;-71
2022/04/27 08:00:36;;;;;;;;;;;;;;;18.92;48.71;99711.00;4482317;31;32237;-70
2022/04/27 08:03:04;;;;;;;;;;;;;;;19.12;48.19;99709.63;4484143;31;34202;-70
2022/04/27 08:05:33;;;;;;;;;;;;;;;18.71;48.89;99716.88;4482552;31;34535;-68
2022/04/27 08:08:01;;;;;;;;;;;;;;;19.15;47.12;99716.59;4486098;31;35043;-71
2022/04/27 08:10:30;;;;;;;;;;;;;;;19.51;45.96;99715.16;4479038;31;31465;-69
2022/04/27 08:12:58;;;;;;;;;;;;;;;19.61;45.47;99714.13;4492754;31;34354;-70
2022/04/27 08:15:26;;;;;;;;;;;;;;;19.60;46.60;99713.28;4470583;32;35225;-70
2022/04/27 08:17:59;;;;;;;;;;;;;;;19.73;46.01;99713.59;4482107;31;34162;-69
2022/04/27 08:23:34;;;;;;;;;;;;;;;19.72;45.66;99730.09;4487928;31;33926;-71
2022/04/27 08:26:03;;;;;;;;;;;;;;;20.01;44.98;99726.75;4486778;31;34384;-68
2022/04/27 08:28:32;;;;;;;;;;;;;;;20.04;44.83;99729.13;4496205;31;34099;-69
2022/04/27 08:31:01;;;;;;;;;;;;;;;20.13;44.28;99727.22;4486176;31;34085;-71
2022/04/27 08:33:29;;;;;;;;;;;;;;;19.99;45.02;99732.34;4480107;31;33296;-68
2022/04/27 08:35:59;;;;;;;;;;;;;;;20.16;44.24;99730.44;4494437;31;35462;-77
2022/04/27 08:38:48;;;;;;;;;;;;;;;20.02;44.00;99731.16;4486773;31;34076;-72
2022/04/27 08:41:16;;;;;;;;;;;;;;;20.04;44.59;99733.72;4488303;31;32232;-72
2022/04/27 08:43:45;;;;;;;;;;;;;;;19.94;45.15;99737.50;4493434;31;35209;-71
2022/04/27 08:46:15;;;;;;;;;;;;;;;19.92;45.71;99730.53;4487147;31;33035;-71
2022/04/27 08:48:47;;;;;;;;;;;;;;;19.86;45.94;99729.34;4483475;32;34107;-70
2022/04/27 08:51:15;;;;;;;;;;;;;;;19.08;48.02;99729.97;4471852;31;31833;-71
2022/04/27 08:53:44;;;;;;;;;;;;;;;18.64;49.23;99730.25;4482864;32;33922;-71
2022/04/27 08:56:13;;;;;;;;;;;;;;;19.31;47.25;99722.81;4482697;31;34141;-70
2022/04/27 08:58:42;;;;;;;;;;;;;;;19.85;46.05;99726.81;4490996;31;35435;-70
2022/04/27 09:01:12;;;;;;;;;;;;;;;20.11;45.78;99721.13;4488558;31;34740;-70
2022/04/27 09:03:41;;;;;;;;;;;;;;;19.87;46.46;99717.50;4474381;31;32700;-71
2022/04/27 09:06:17;;;;;;;;;;;;;;;19.08;48.09;99721.84;4482885;31;34555;-71
2022/04/27 09:08:53;;;;;;;;;;;;;;;19.82;47.16;99728.03;4495100;31;35239;-71
2022/04/27 09:11:25;;;;;;;;;;;;;;;20.29;46.21;99729.88;4483513;31;33497;-71
2022/04/27 09:13:56;;;;;;;;;;;;;;;20.37;45.43;99726.25;4491328;31;33520;-69
2022/04/27 09:20:46;;;;;;;;;;;;;;;20.14;45.64;99732.47;4489570;31;33079;-70
2022/04/27 09:22:06;;;;;;;;;;;;;;;20.47;45.52;99733.16;4482644;31;33827;-72
2022/04/27 09:24:51;;;;;;;;;;;;;;;19.89;46.04;99723.56;4485745;31;33631;-73
2022/04/27 09:27:23;;;;;;;;;;;;;;;20.87;44.35;99727.66;4486950;31;33863;-71
2022/04/27 09:29:55;;;;;;;;;;;;;;;21.12;43.33;99731.00;4491636;31;33354;-71
2022/04/27 09:32:25;;;;;;;;;;;;;;;20.22;45.74;99727.03;4481235;31;34124;-73
2022/04/27 09:34:54;;;;;;;;;;;;;;;20.19;45.43;99734.66;4480005;31;34211;-73
2022/04/27 09:37:24;;;;;;;;;;;;;;;20.51;44.58;99722.78;4484448;31;32922;-72
2022/04/27 09:40:06;;;;;;;;;;;;;;;20.61;43.65;99730.72;4485738;31;33299;-71
2022/04/27 09:42:35;;;;;;;;;;;;;;;20.71;43.15;99720.47;4483363;31;32481;-71
2022/04/27 09:45:23;;;;;;;;;;;;;;;20.67;43.72;99722.72;4471259;31;33755;-70
2022/04/27 09:47:53;;;;;;;;;;;;;;;20.72;43.22;99732.19;4488415;31;34132;-71
2022/04/27 09:50:21;;;;;;;;;;;;;;;20.81;43.58;99736.56;4483460;31;32380;-72
2022/04/27 09:52:49;;;;;;;;;;;;;;;21.02;43.29;99730.41;4490794;31;33534;-71
2022/04/27 09:55:17;;;;;;;;;;;;;;;20.05;44.95;99725.38;4480170;31;35437;-71
2022/04/27 09:57:56;;;;;;;;;;;;;;;19.88;45.58;99724.59;4462893;31;32637;-71
2022/04/27 10:00:25;;;;;;;;;;;;;;;20.22;44.81;99727.03;4482266;31;35399;-72
2022/04/27 10:02:54;;;;;;;;;;;;;;;19.94;45.16;99731.22;4488955;31;33426;-72
2022/04/27 10:05:22;;;;;;;;;;;;;;;20.03;45.14;99724.69;4480234;31;34697;-71
2022/04/27 10:07:51;;;;;;;;;;;;;;;20.09;44.86;99726.72;4484064;31;34115;-72
2022/04/27 10:10:19;;;;;;;;;;;;;;;20.10;45.73;99728.44;4477259;31;33456;-71
2022/04/27 10:12:48;;;;;;;;;;;;;;;19.86;45.41;99728.50;4488225;31;33599;-74
2022/04/27 10:15:17;;;;;;;;;;;;;;;19.87;45.52;99732.91;4469853;32;31835;-72
2022/04/27 10:17:45;;;;;;;;;;;;;;;19.64;46.19;99730.94;4471593;31;35187;-71
2022/04/27 10:20:26;;;;;;;;;;;;;;;19.61;46.22;99741.28;4492284;31;32695;-72
2022/04/27 10:23:12;;;;;;;;;;;;;;;19.66;46.29;99734.34;4489282;31;32341;-72
2022/04/27 10:25:40;;;;;;;;;;;;;;;19.22;47.89;99736.56;4487179;31;32985;-72
2022/04/27 10:28:15;;;;;;;;;;;;;;;19.16;48.44;99748.94;4496150;31;34230;-72
2022/04/27 10:30:45;;;;;;;;;;;;;;;19.11;49.80;99751.34;4475089;32;33081;-72
2022/04/27 10:33:30;;;;;;;;;;;;;;;18.83;49.87;99748.09;4482734;31;33580;-73
2022/04/27 10:36:18;;;;;;;;;;;;;;;18.90;50.19;99749.13;4474965;31;35539;-73
2022/04/27 10:39:13;;;;;;;;;;;;;;;19.12;49.70;99752.19;4491673;31;34023;-73
2022/04/27 10:41:43;;;;;;;;;;;;;;;18.19;51.93;99750.44;4484779;31;35335;-74
2022/04/27 10:44:11;;;;;;;;;;;;;;;18.77;50.81;99754.19;4468349;31;33176;-73
2022/04/27 10:46:44;;;;;;;;;;;;;;;18.75;50.22;99748.94;4497585;31;34342;-72
2022/04/27 10:49:24;;;;;;;;;;;;;;;18.36;51.82;99756.75;4486822;31;33113;-72
2022/04/27 10:52:10;;;;;;;;;;;;;;;18.12;52.44;99752.13;4484036;31;34906;-71
2022/04/27 10:54:39;;;;;;;;;;;;;;;17.97;53.26;99757.28;4495547;31;33188;-72
2022/04/27 10:57:16;;;;;;;;;;;;;;;18.32;52.58;99748.13;4498203;31;32846;-72
2022/04/27 10:59:52;;;;;;;;;;;;;;;18.23;52.16;99743.69;4490695;31;35407;-71
2022/04/27 11:02:39;;;;;;;;;;;;;;;18.18;51.86;99758.75;4471675;31;36175;-71
2022/04/27 11:05:10;;;;;;;;;;;;;;;17.85;52.81;99753.19;4491832;31;33386;-72
2022/04/27 11:07:41;;;;;;;;;;;;;;;18.03;52.22;99755.78;4494941;31;35239;-72
2022/04/27 11:10:15;;;;;;;;;;;;;;;18.05;52.10;99749.22;4488623;31;34600;-72
2022/04/27 11:12:52;;;;;;;;;;;;;;;18.06;52.34;99752.75;4492184;31;34279;-74
2022/04/27 11:15:22;;;;;;;;;;;;;;;17.39;54.36;99763.34;4492384;31;34673;-74
2022/04/27 11:17:55;;;;;;;;;;;;;;;17.67;53.50;99764.87;4489686;31;34278;-72
2022/04/27 11:20:27;;;;;;;;;;;;;;;18.04;52.97;99763.78;4487387;31;34412;-72
2022/04/27 11:22:55;;;;;;;;;;;;;;;17.62;54.08;99763.66;4485412;31;34387;-72
2022/04/27 11:25:25;;;;;;;;;;;;;;;17.73;53.88;99763.41;4492501;31;33449;-71
2022/04/27 11:27:54;;;;;;;;;;;;;;;17.46;54.82;99753.56;4493836;31;34016;-71
2022/04/27 11:30:22;;;;;;;;;;;;;;;17.66;54.23;99765.06;4484515;31;35109;-73
2022/04/27 11:32:50;;;;;;;;;;;;;;;17.46;54.63;99762.56;4456435;31;34111;-71
2022/04/27 11:35:22;;;;;;;;;;;;;;;17.21;55.15;99761.53;4491942;31;32413;-73
2022/04/27 11:37:54;;;;;;;;;;;;;;;17.41;54.82;99764.87;4496346;31;32840;-72
2022/04/27 11:40:26;;;;;;;;;;;;;;;17.20;55.17;99764.37;4484151;31;34173;-73
2022/04/27 11:42:54;;;;;;;;;;;;;;;16.92;55.86;99766.34;4485942;31;33239;-69
2022/04/27 11:45:22;;;;;;;;;;;;;;;17.14;55.16;99765.88;4465404;31;33372;-68
2022/04/27 11:48:00;;;;;;;;;;;;;;;16.79;56.39;99765.84;4471252;31;32190;-69
2022/04/27 11:50:32;;;;;;;;;;;;;;;17.12;55.41;99764.31;4493526;31;35121;-69
2022/04/27 11:53:03;;;;;;;;;;;;;;;17.11;55.69;99776.12;4498145;31;35362;-70
2022/04/27 11:55:32;;;;;;;;;;;;;;;16.18;57.53;99767.34;4476995;31;33482;-69
2022/04/27 11:58:00;;;;;;;;;;;;;;;16.57;56.77;99772.56;4480700;31;34453;-69
2022/04/27 12:00:28;;;;;;;;;;;;;;;16.21;57.13;99769.75;4485713;31;34048;-72
2022/04/27 12:03:03;;;;;;;;;;;;;;;16.53;56.42;99767.47;4494364;31;35118;-69
2022/04/27 12:05:32;;;;;;;;;;;;;;;16.44;56.79;99772.91;4481174;31;33419;-68
2022/04/27 12:08:10;;;;;;;;;;;;;;;16.65;56.02;99768.06;4489711;31;34251;-69
2022/04/27 12:10:40;;;;;;;;;;;;;;;16.56;56.61;99773.53;4485165;31;34903;-69
2022/04/27 12:13:08;;;;;;;;;;;;;;;16.77;55.88;99774.97;4473029;31;35209;-69
2022/04/27 12:15:39;;;;;;;;;;;;;;;16.40;56.93;99775.03;4487785;31;34579;-69
2022/04/27 12:18:07;;;;;;;;;;;;;;;16.50;56.48;99775.84;4486018;31;34477;-68
2022/04/27 12:20:41;;;;;;;;;;;;;;;15.63;58.92;99780.75;4485429;31;34373;-69
2022/04/27 12:23:10;;;;;;;;;;;;;;;15.62;58.78;99777.22;4488090;31;33612;-69
2022/04/27 12:25:45;;;;;;;;;;;;;;;15.20;59.69;99779.44;4486611;31;33580;-69
2022/04/27 12:28:16;;;;;;;;;;;;;;;15.89;57.26;99765.66;4490257;31;33014;-69
2022/04/27 12:30:51;;;;;;;;;;;;;;;15.98;57.40;99772.00;4486009;31;33267;-69
2022/04/27 12:33:21;;;;;;;;;;;;;;;16.02;57.53;99763.47;4491119;31;34414;-71
2022/04/27 12:38:56;;;;;;;;;;;;;;;15.81;58.40;99771.78;4490527;31;32983;-69
2022/04/27 12:41:29;;;;;;;;;;;;;;;15.73;58.65;99774.38;4488852;31;34603;-66
2022/04/27 12:44:05;;;;;;;;;;;;;;;16.20;56.99;99760.81;4490193;31;34341;-68
2022/04/27 12:47:05;;;;;;;;;;;;;;;16.07;57.67;99766.56;4468069;32;31926;-72
2022/04/27 12:49:34;;;;;;;;;;;;;;;15.84;58.93;99766.09;4481393;31;34311;-68
2022/04/27 12:52:34;;;;;;;;;;;;;;;15.55;59.36;99771.56;4468292;31;33565;-69
2022/04/27 12:55:02;;;;;;;;;;;;;;;15.65;59.17;99770.69;4486439;31;34529;-69
2022/04/27 12:57:49;;;;;;;;;;;;;;;15.51;59.55;99772.00;4481452;31;34440;-70
2022/04/27 13:00:19;;;;;;;;;;;;;;;15.65;59.98;99770.69;4483149;31;33329;-70
2022/04/27 13:02:47;;;;;;;;;;;;;;;15.12;61.28;99775.59;4473109;31;33499;-71
2022/04/27 13:05:15;;;;;;;;;;;;;;;15.75;59.73;99768.81;4467615;31;34263;-68
2022/04/27 13:07:42;;;;;;;;;;;;;;;15.96;59.18;99766.75;4481914;32;33622;-69
2022/04/27 13:12:57;;;;;;;;;;;;;;;15.75;60.32;99772.37;4495193;31;33046;-69
2022/04/27 13:15:25;;;;;;;;;;;;;;;15.08;62.51;99779.56;4491615;31;33324;-69
2022/04/27 13:17:53;;;;;;;;;;;;;;;14.80;63.77;99777.72;4483715;31;34631;-70
2022/04/27 13:20:21;;;;;;;;;;;;;;;15.20;62.69;99772.19;4482392;31;33107;-69
2022/04/27 13:22:49;;;;;;;;;;;;;;;15.48;62.04;99772.28;4495457;31;34070;-69
2022/04/27 13:25:17;;;;;;;;;;;;;;;15.48;61.78;99778.53;4483105;31;32976;-69
2022/04/27 13:27:44;;;;;;;;;;;;;;;15.53;61.39;99775.38;4488086;31;32812;-68
2022/04/27 13:30:13;;;;;;;;;;;;;;;15.75;60.81;99780.47;4484418;31;34425;-72
2022/04/27 13:32:41;;;;;;;;;;;;;;;15.31;61.89;99782.81;4485036;31;34252;-68
2022/04/27 13:35:08;;;;;;;;;;;;;;;15.73;60.77;99781.59;4482059;31;33267;-68